sensor_id;sensor_type;location;lat;lon;timestamp;P1;durP1;ratioP1;P2;durP2;ratioP2
55423;SDS011;41294;42.666;23.350;2023-05-10T00:02:02;8.87;;;8.17;;
55423;SDS011;41294;42.666;23.350;2023-05-10T00:04:27;9.37;;;8.57;;
55423;SDS011;41294;42.666;23.350;2023-05-10T00:06:53;8.77;;;8.00;;
55423;SDS011;41294;42.666;23.350;2023-05-10T00:09:18;7.60;;;6.93;;
55423;SDS011;41294;42.666;23.350;2023-05-10T00:11:44;8.80;;;8.10;;
55423;SDS011;41294;42.666;23.350;2023-05-10T00:14:09;8.47;;;7.77;;
55423;SDS011;41294;42.666;23.350;2023-05-10T00:16:37;8.83;;;8.13;;
55423;SDS011;41294;42.666;23.350;2023-05-10T00:19:02;7.83;;;7.23;;
55423;SDS011;41294;42.666;23.350;2023-05-10T00:21:28;9.30;;;8.50;;
55423;SDS011;41294;42.666;23.350;2023-05-10T00:23:53;8.50;;;7.80;;
55423;SDS011;41294;42.666;23.350;2023-05-10T00:26:19;8.57;;;7.87;;
55423;SDS011;41294;42.666;23.350;2023-05-10T00:28:45;9.57;;;8.77;;
55423;SDS011;41294;42.666;23.350;2023-05-10T00:31:10;8.33;;;7.63;;
55423;SDS011;41294;42.666;23.350;2023-05-10T00:33:36;10.50;;;9.60;;
55423;SDS011;41294;42.666;23.350;2023-05-10T00:36:01;9.03;;;8.33;;
55423;SDS011;41294;42.666;23.350;2023-05-10T00:38:26;9.43;;;8.63;;
55423;SDS011;41294;42.666;23.350;2023-05-10T00:40:52;9.90;;;9.10;;
55423;SDS011;41294;42.666;23.350;2023-05-10T00:43:17;10.03;;;9.13;;
55423;SDS011;41294;42.666;23.350;2023-05-10T00:45:42;10.50;;;9.40;;
55423;SDS011;41294;42.666;23.350;2023-05-10T00:48:08;10.33;;;9.33;;
55423;SDS011;41294;42.666;23.350;2023-05-10T00:50:34;10.43;;;9.53;;
55423;SDS011;41294;42.666;23.350;2023-05-10T00:52:59;11.03;;;10.03;;
55423;SDS011;41294;42.666;23.350;2023-05-10T00:55:26;11.10;;;10.10;;
55423;SDS011;41294;42.666;23.350;2023-05-10T00:57:52;11.97;;;10.80;;
55423;SDS011;41294;42.666;23.350;2023-05-10T01:00:18;11.40;;;10.40;;
55423;SDS011;41294;42.666;23.350;2023-05-10T01:02:44;11.43;;;10.40;;
55423;SDS011;41294;42.666;23.350;2023-05-10T01:05:11;11.87;;;10.77;;
55423;SDS011;41294;42.666;23.350;2023-05-10T01:07:37;10.83;;;9.90;;
55423;SDS011;41294;42.666;23.350;2023-05-10T01:10:02;10.43;;;9.53;;
55423;SDS011;41294;42.666;23.350;2023-05-10T01:12:28;11.17;;;10.27;;
55423;SDS011;41294;42.666;23.350;2023-05-10T01:14:54;10.23;;;9.43;;
55423;SDS011;41294;42.666;23.350;2023-05-10T01:17:20;11.40;;;10.40;;
55423;SDS011;41294;42.666;23.350;2023-05-10T01:19:46;12.13;;;11.03;;
55423;SDS011;41294;42.666;23.350;2023-05-10T01:22:37;11.10;;;10.00;;
55423;SDS011;41294;42.666;23.350;2023-05-10T01:33:59;9.63;;;8.83;;
55423;SDS011;41294;42.666;23.350;2023-05-10T01:44:25;8.97;;;8.03;;
55423;SDS011;41294;42.666;23.350;2023-05-10T01:49:32;7.63;;;6.93;;
55423;SDS011;41294;42.666;23.350;2023-05-10T01:52:12;7.10;;;6.50;;
55423;SDS011;41294;42.666;23.350;2023-05-10T01:55:00;7.30;;;6.70;;
55423;SDS011;41294;42.666;23.350;2023-05-10T01:57:30;7.20;;;6.70;;
55423;SDS011;41294;42.666;23.350;2023-05-10T01:59:59;4.97;;;4.57;;
55423;SDS011;41294;42.666;23.350;2023-05-10T02:02:28;5.47;;;5.10;;
55423;SDS011;41294;42.666;23.350;2023-05-10T02:07:43;5.50;;;5.07;;
55423;SDS011;41294;42.666;23.350;2023-05-10T02:10:10;5.00;;;4.63;;
55423;SDS011;41294;42.666;23.350;2023-05-10T02:12:36;5.83;;;5.23;;
55423;SDS011;41294;42.666;23.350;2023-05-10T02:15:06;6.50;;;5.90;;
55423;SDS011;41294;42.666;23.350;2023-05-10T02:17:34;6.33;;;5.83;;
55423;SDS011;41294;42.666;23.350;2023-05-10T02:20:03;5.70;;;5.20;;
55423;SDS011;41294;42.666;23.350;2023-05-10T02:22:31;5.57;;;5.17;;
55423;SDS011;41294;42.666;23.350;2023-05-10T02:24:58;5.30;;;4.77;;
55423;SDS011;41294;42.666;23.350;2023-05-10T02:27:25;5.87;;;5.37;;
55423;SDS011;41294;42.666;23.350;2023-05-10T02:29:52;6.93;;;5.13;;
55423;SDS011;41294;42.666;23.350;2023-05-10T02:32:19;6.27;;;4.63;;
55423;SDS011;41294;42.666;23.350;2023-05-10T02:34:47;7.00;;;5.30;;
55423;SDS011;41294;42.666;23.350;2023-05-10T02:37:18;5.13;;;4.63;;
55423;SDS011;41294;42.666;23.350;2023-05-10T02:39:48;4.87;;;4.47;;
55423;SDS011;41294;42.666;23.350;2023-05-10T02:42:19;6.43;;;5.20;;
55423;SDS011;41294;42.666;23.350;2023-05-10T02:44:51;5.23;;;4.83;;
55423;SDS011;41294;42.666;23.350;2023-05-10T02:47:19;5.97;;;4.90;;
55423;SDS011;41294;42.666;23.350;2023-05-10T02:49:45;4.97;;;4.47;;
55423;SDS011;41294;42.666;23.350;2023-05-10T02:52:11;5.47;;;4.73;;
55423;SDS011;41294;42.666;23.350;2023-05-10T02:54:43;5.37;;;4.87;;
55423;SDS011;41294;42.666;23.350;2023-05-10T02:57:11;5.57;;;4.70;;
55423;SDS011;41294;42.666;23.350;2023-05-10T02:59:43;5.00;;;4.50;;
55423;SDS011;41294;42.666;23.350;2023-05-10T03:02:09;5.43;;;4.93;;
55423;SDS011;41294;42.666;23.350;2023-05-10T03:04:35;5.20;;;4.70;;
55423;SDS011;41294;42.666;23.350;2023-05-10T03:07:01;4.87;;;4.47;;
55423;SDS011;41294;42.666;23.350;2023-05-10T03:09:27;5.70;;;4.53;;
55423;SDS011;41294;42.666;23.350;2023-05-10T03:12:15;5.43;;;4.93;;
55423;SDS011;41294;42.666;23.350;2023-05-10T03:14:45;5.47;;;4.97;;
55423;SDS011;41294;42.666;23.350;2023-05-10T03:17:28;5.77;;;4.93;;
55423;SDS011;41294;42.666;23.350;2023-05-10T03:20:01;5.30;;;4.90;;
55423;SDS011;41294;42.666;23.350;2023-05-10T03:22:37;5.50;;;5.00;;
55423;SDS011;41294;42.666;23.350;2023-05-10T03:25:06;5.77;;;5.10;;
55423;SDS011;41294;42.666;23.350;2023-05-10T03:27:34;5.83;;;5.23;;
55423;SDS011;41294;42.666;23.350;2023-05-10T03:30:01;6.10;;;5.50;;
55423;SDS011;41294;42.666;23.350;2023-05-10T03:32:28;4.87;;;4.47;;
55423;SDS011;41294;42.666;23.350;2023-05-10T03:34:55;5.40;;;4.90;;
55423;SDS011;41294;42.666;23.350;2023-05-10T03:37:20;5.80;;;5.23;;
55423;SDS011;41294;42.666;23.350;2023-05-10T03:39:45;5.77;;;5.10;;
55423;SDS011;41294;42.666;23.350;2023-05-10T03:42:11;5.93;;;5.33;;
55423;SDS011;41294;42.666;23.350;2023-05-10T03:44:37;5.60;;;5.10;;
55423;SDS011;41294;42.666;23.350;2023-05-10T03:47:03;5.83;;;4.77;;
55423;SDS011;41294;42.666;23.350;2023-05-10T03:49:29;6.97;;;4.93;;
55423;SDS011;41294;42.666;23.350;2023-05-10T03:51:54;6.13;;;5.53;;
55423;SDS011;41294;42.666;23.350;2023-05-10T03:54:20;7.73;;;5.27;;
55423;SDS011;41294;42.666;23.350;2023-05-10T03:56:45;6.63;;;5.37;;
55423;SDS011;41294;42.666;23.350;2023-05-10T03:59:12;6.27;;;5.63;;
55423;SDS011;41294;42.666;23.350;2023-05-10T04:01:38;5.70;;;5.17;;
55423;SDS011;41294;42.666;23.350;2023-05-10T04:04:03;5.57;;;5.10;;
55423;SDS011;41294;42.666;23.350;2023-05-10T04:06:29;5.60;;;5.10;;
55423;SDS011;41294;42.666;23.350;2023-05-10T04:08:54;6.80;;;5.43;;
55423;SDS011;41294;42.666;23.350;2023-05-10T04:11:20;6.13;;;5.57;;
55423;SDS011;41294;42.666;23.350;2023-05-10T04:13:47;6.20;;;5.60;;
55423;SDS011;41294;42.666;23.350;2023-05-10T04:16:12;5.90;;;5.30;;
55423;SDS011;41294;42.666;23.350;2023-05-10T04:18:37;6.27;;;5.17;;
55423;SDS011;41294;42.666;23.350;2023-05-10T04:21:04;6.13;;;5.57;;
55423;SDS011;41294;42.666;23.350;2023-05-10T04:23:35;6.10;;;5.60;;
55423;SDS011;41294;42.666;23.350;2023-05-10T04:26:01;6.00;;;5.50;;
55423;SDS011;41294;42.666;23.350;2023-05-10T04:28:27;6.20;;;5.70;;
55423;SDS011;41294;42.666;23.350;2023-05-10T04:30:52;6.27;;;5.67;;
55423;SDS011;41294;42.666;23.350;2023-05-10T04:33:17;6.90;;;6.20;;
55423;SDS011;41294;42.666;23.350;2023-05-10T04:35:43;7.23;;;6.17;;
55423;SDS011;41294;42.666;23.350;2023-05-10T04:38:10;6.43;;;5.80;;
55423;SDS011;41294;42.666;23.350;2023-05-10T04:40:35;7.60;;;6.10;;
55423;SDS011;41294;42.666;23.350;2023-05-10T04:43:00;7.23;;;6.17;;
55423;SDS011;41294;42.666;23.350;2023-05-10T04:45:26;7.77;;;5.83;;
55423;SDS011;41294;42.666;23.350;2023-05-10T04:47:51;6.60;;;6.00;;
55423;SDS011;41294;42.666;23.350;2023-05-10T04:50:17;7.30;;;6.60;;
55423;SDS011;41294;42.666;23.350;2023-05-10T04:52:42;7.30;;;6.53;;
55423;SDS011;41294;42.666;23.350;2023-05-10T04:55:08;8.03;;;6.13;;
55423;SDS011;41294;42.666;23.350;2023-05-10T04:57:34;7.20;;;6.53;;
55423;SDS011;41294;42.666;23.350;2023-05-10T05:00:00;6.83;;;5.80;;
55423;SDS011;41294;42.666;23.350;2023-05-10T05:02:25;7.50;;;5.90;;
55423;SDS011;41294;42.666;23.350;2023-05-10T05:04:51;6.90;;;6.20;;
55423;SDS011;41294;42.666;23.350;2023-05-10T05:07:17;8.23;;;7.40;;
55423;SDS011;41294;42.666;23.350;2023-05-10T05:09:42;7.73;;;6.90;;
55423;SDS011;41294;42.666;23.350;2023-05-10T05:12:09;9.20;;;7.63;;
55423;SDS011;41294;42.666;23.350;2023-05-10T05:14:38;9.60;;;7.13;;
55423;SDS011;41294;42.666;23.350;2023-05-10T05:17:04;8.47;;;7.60;;
55423;SDS011;41294;42.666;23.350;2023-05-10T05:19:30;10.50;;;7.53;;
55423;SDS011;41294;42.666;23.350;2023-05-10T05:21:56;7.83;;;7.03;;
55423;SDS011;41294;42.666;23.350;2023-05-10T05:24:21;9.00;;;7.10;;
55423;SDS011;41294;42.666;23.350;2023-05-10T05:26:47;11.07;;;7.33;;
55423;SDS011;41294;42.666;23.350;2023-05-10T05:29:13;8.67;;;7.67;;
55423;SDS011;41294;42.666;23.350;2023-05-10T05:31:38;9.10;;;8.13;;
55423;SDS011;41294;42.666;23.350;2023-05-10T05:34:04;9.87;;;7.60;;
55423;SDS011;41294;42.666;23.350;2023-05-10T05:36:29;9.73;;;7.80;;
55423;SDS011;41294;42.666;23.350;2023-05-10T05:38:57;9.77;;;8.87;;
55423;SDS011;41294;42.666;23.350;2023-05-10T05:41:22;8.97;;;7.77;;
55423;SDS011;41294;42.666;23.350;2023-05-10T05:43:49;8.83;;;7.90;;
55423;SDS011;41294;42.666;23.350;2023-05-10T05:46:15;8.60;;;7.67;;
55423;SDS011;41294;42.666;23.350;2023-05-10T05:48:40;9.27;;;8.37;;
55423;SDS011;41294;42.666;23.350;2023-05-10T05:51:05;8.73;;;7.83;;
55423;SDS011;41294;42.666;23.350;2023-05-10T05:53:31;9.23;;;8.33;;
55423;SDS011;41294;42.666;23.350;2023-05-10T05:55:57;8.80;;;8.00;;
55423;SDS011;41294;42.666;23.350;2023-05-10T05:58:24;11.40;;;8.87;;
55423;SDS011;41294;42.666;23.350;2023-05-10T06:00:50;10.83;;;8.80;;
55423;SDS011;41294;42.666;23.350;2023-05-10T06:03:17;10.33;;;9.33;;
55423;SDS011;41294;42.666;23.350;2023-05-10T06:05:43;10.60;;;9.47;;
55423;SDS011;41294;42.666;23.350;2023-05-10T06:08:08;10.50;;;9.27;;
55423;SDS011;41294;42.666;23.350;2023-05-10T06:10:34;10.10;;;8.97;;
55423;SDS011;41294;42.666;23.350;2023-05-10T06:13:00;14.50;;;9.60;;
55423;SDS011;41294;42.666;23.350;2023-05-10T06:15:26;9.77;;;8.73;;
55423;SDS011;41294;42.666;23.350;2023-05-10T06:17:52;11.27;;;10.07;;
55423;SDS011;41294;42.666;23.350;2023-05-10T06:20:17;10.47;;;9.37;;
55423;SDS011;41294;42.666;23.350;2023-05-10T06:22:42;11.63;;;9.50;;
55423;SDS011;41294;42.666;23.350;2023-05-10T06:25:08;10.20;;;9.20;;
55423;SDS011;41294;42.666;23.350;2023-05-10T06:27:34;11.67;;;9.83;;
55423;SDS011;41294;42.666;23.350;2023-05-10T06:30:00;10.50;;;9.50;;
55423;SDS011;41294;42.666;23.350;2023-05-10T06:32:25;10.93;;;9.77;;
55423;SDS011;41294;42.666;23.350;2023-05-10T06:34:51;11.53;;;9.70;;
55423;SDS011;41294;42.666;23.350;2023-05-10T06:37:17;11.93;;;9.23;;
55423;SDS011;41294;42.666;23.350;2023-05-10T06:39:42;10.73;;;9.20;;
55423;SDS011;41294;42.666;23.350;2023-05-10T06:42:08;9.60;;;8.70;;
55423;SDS011;41294;42.666;23.350;2023-05-10T06:44:34;10.10;;;9.10;;
55423;SDS011;41294;42.666;23.350;2023-05-10T06:46:59;12.57;;;8.73;;
55423;SDS011;41294;42.666;23.350;2023-05-10T06:49:25;9.87;;;8.87;;
55423;SDS011;41294;42.666;23.350;2023-05-10T06:51:50;10.07;;;9.03;;
55423;SDS011;41294;42.666;23.350;2023-05-10T06:54:16;9.73;;;8.73;;
55423;SDS011;41294;42.666;23.350;2023-05-10T06:56:41;9.37;;;8.57;;
55423;SDS011;41294;42.666;23.350;2023-05-10T06:59:06;10.30;;;9.20;;
55423;SDS011;41294;42.666;23.350;2023-05-10T07:01:32;10.00;;;8.53;;
55423;SDS011;41294;42.666;23.350;2023-05-10T07:03:57;10.07;;;8.37;;
55423;SDS011;41294;42.666;23.350;2023-05-10T07:06:23;12.03;;;9.37;;
55423;SDS011;41294;42.666;23.350;2023-05-10T07:08:48;9.90;;;8.90;;
55423;SDS011;41294;42.666;23.350;2023-05-10T07:11:13;9.60;;;8.60;;
55423;SDS011;41294;42.666;23.350;2023-05-10T07:13:39;9.70;;;8.57;;
55423;SDS011;41294;42.666;23.350;2023-05-10T07:16:06;8.70;;;7.90;;
55423;SDS011;41294;42.666;23.350;2023-05-10T07:18:33;8.07;;;6.97;;
55423;SDS011;41294;42.666;23.350;2023-05-10T07:20:59;10.03;;;7.93;;
55423;SDS011;41294;42.666;23.350;2023-05-10T07:23:24;9.60;;;7.10;;
55423;SDS011;41294;42.666;23.350;2023-05-10T07:25:50;9.03;;;7.53;;
55423;SDS011;41294;42.666;23.350;2023-05-10T07:28:19;8.93;;;8.03;;
55423;SDS011;41294;42.666;23.350;2023-05-10T07:30:45;8.87;;;7.83;;
55423;SDS011;41294;42.666;23.350;2023-05-10T07:33:12;8.37;;;7.57;;
55423;SDS011;41294;42.666;23.350;2023-05-10T07:35:39;9.27;;;8.00;;
55423;SDS011;41294;42.666;23.350;2023-05-10T07:38:04;8.93;;;7.73;;
55423;SDS011;41294;42.666;23.350;2023-05-10T07:40:30;10.40;;;9.30;;
55423;SDS011;41294;42.666;23.350;2023-05-10T07:42:56;9.57;;;8.57;;
55423;SDS011;41294;42.666;23.350;2023-05-10T07:45:22;10.63;;;8.60;;
55423;SDS011;41294;42.666;23.350;2023-05-10T07:47:48;9.00;;;8.07;;
55423;SDS011;41294;42.666;23.350;2023-05-10T07:50:14;9.37;;;8.47;;
55423;SDS011;41294;42.666;23.350;2023-05-10T07:52:39;10.53;;;9.37;;
55423;SDS011;41294;42.666;23.350;2023-05-10T07:55:05;10.27;;;9.10;;
55423;SDS011;41294;42.666;23.350;2023-05-10T07:57:32;11.00;;;9.53;;
55423;SDS011;41294;42.666;23.350;2023-05-10T07:59:58;11.07;;;9.90;;
55423;SDS011;41294;42.666;23.350;2023-05-10T08:02:24;11.07;;;9.53;;
55423;SDS011;41294;42.666;23.350;2023-05-10T08:04:49;10.40;;;9.50;;
55423;SDS011;41294;42.666;23.350;2023-05-10T08:07:14;10.47;;;9.37;;
55423;SDS011;41294;42.666;23.350;2023-05-10T08:09:40;10.43;;;9.27;;
55423;SDS011;41294;42.666;23.350;2023-05-10T08:12:05;11.30;;;9.67;;
55423;SDS011;41294;42.666;23.350;2023-05-10T08:14:31;9.60;;;8.70;;
55423;SDS011;41294;42.666;23.350;2023-05-10T08:16:56;11.50;;;9.23;;
55423;SDS011;41294;42.666;23.350;2023-05-10T08:19:22;10.20;;;9.20;;
55423;SDS011;41294;42.666;23.350;2023-05-10T08:21:47;11.97;;;9.80;;
55423;SDS011;41294;42.666;23.350;2023-05-10T08:24:13;11.03;;;8.83;;
55423;SDS011;41294;42.666;23.350;2023-05-10T08:26:39;10.23;;;9.30;;
55423;SDS011;41294;42.666;23.350;2023-05-10T08:29:05;12.03;;;10.23;;
55423;SDS011;41294;42.666;23.350;2023-05-10T08:31:30;12.23;;;10.20;;
55423;SDS011;41294;42.666;23.350;2023-05-10T08:33:55;9.93;;;8.93;;
55423;SDS011;41294;42.666;23.350;2023-05-10T08:36:21;10.73;;;9.73;;
55423;SDS011;41294;42.666;23.350;2023-05-10T08:38:50;11.00;;;9.30;;
55423;SDS011;41294;42.666;23.350;2023-05-10T08:41:16;10.37;;;8.70;;
55423;SDS011;41294;42.666;23.350;2023-05-10T08:43:42;12.20;;;9.90;;
55423;SDS011;41294;42.666;23.350;2023-05-10T08:46:11;12.60;;;8.83;;
55423;SDS011;41294;42.666;23.350;2023-05-10T08:48:43;9.83;;;8.93;;
55423;SDS011;41294;42.666;23.350;2023-05-10T08:51:35;10.83;;;9.83;;
55423;SDS011;41294;42.666;23.350;2023-05-10T08:54:01;10.90;;;9.27;;
55423;SDS011;41294;42.666;23.350;2023-05-10T08:56:27;12.43;;;10.20;;
55423;SDS011;41294;42.666;23.350;2023-05-10T08:58:53;13.23;;;9.73;;
55423;SDS011;41294;42.666;23.350;2023-05-10T09:01:18;11.10;;;9.73;;
55423;SDS011;41294;42.666;23.350;2023-05-10T09:03:46;11.20;;;9.97;;
55423;SDS011;41294;42.666;23.350;2023-05-10T09:06:12;10.20;;;9.30;;
55423;SDS011;41294;42.666;23.350;2023-05-10T09:08:38;10.40;;;9.43;;
55423;SDS011;41294;42.666;23.350;2023-05-10T09:11:06;10.40;;;9.50;;
55423;SDS011;41294;42.666;23.350;2023-05-10T09:13:33;13.00;;;10.10;;
55423;SDS011;41294;42.666;23.350;2023-05-10T09:16:00;11.13;;;10.13;;
55423;SDS011;41294;42.666;23.350;2023-05-10T09:18:27;11.73;;;10.63;;
55423;SDS011;41294;42.666;23.350;2023-05-10T09:20:54;11.83;;;10.70;;
55423;SDS011;41294;42.666;23.350;2023-05-10T09:23:19;11.20;;;10.10;;
55423;SDS011;41294;42.666;23.350;2023-05-10T09:25:45;11.53;;;10.33;;
55423;SDS011;41294;42.666;23.350;2023-05-10T09:28:10;11.53;;;9.07;;
55423;SDS011;41294;42.666;23.350;2023-05-10T09:30:36;11.90;;;10.63;;
55423;SDS011;41294;42.666;23.350;2023-05-10T09:33:02;10.63;;;9.53;;
55423;SDS011;41294;42.666;23.350;2023-05-10T09:35:28;11.50;;;10.27;;
55423;SDS011;41294;42.666;23.350;2023-05-10T09:37:56;11.63;;;10.47;;
55423;SDS011;41294;42.666;23.350;2023-05-10T09:40:23;15.37;;;10.73;;
55423;SDS011;41294;42.666;23.350;2023-05-10T09:45:23;10.57;;;9.50;;
55423;SDS011;41294;42.666;23.350;2023-05-10T09:47:49;10.17;;;9.10;;
55423;SDS011;41294;42.666;23.350;2023-05-10T09:50:15;11.30;;;10.00;;
55423;SDS011;41294;42.666;23.350;2023-05-10T09:52:47;11.17;;;10.07;;
55423;SDS011;41294;42.666;23.350;2023-05-10T09:55:22;12.33;;;9.80;;
55423;SDS011;41294;42.666;23.350;2023-05-10T09:57:49;10.23;;;9.20;;
55423;SDS011;41294;42.666;23.350;2023-05-10T10:00:23;9.90;;;9.03;;
55423;SDS011;41294;42.666;23.350;2023-05-10T10:02:54;10.53;;;9.50;;
55423;SDS011;41294;42.666;23.350;2023-05-10T10:05:33;9.30;;;8.40;;
55423;SDS011;41294;42.666;23.350;2023-05-10T10:08:00;10.10;;;9.13;;
55423;SDS011;41294;42.666;23.350;2023-05-10T10:10:28;8.83;;;7.90;;
55423;SDS011;41294;42.666;23.350;2023-05-10T10:12:54;9.20;;;8.30;;
55423;SDS011;41294;42.666;23.350;2023-05-10T10:15:20;9.77;;;8.87;;
55423;SDS011;41294;42.666;23.350;2023-05-10T10:17:46;9.40;;;8.60;;
55423;SDS011;41294;42.666;23.350;2023-05-10T10:20:13;9.70;;;8.70;;
55423;SDS011;41294;42.666;23.350;2023-05-10T10:22:39;9.53;;;8.63;;
55423;SDS011;41294;42.666;23.350;2023-05-10T10:25:05;10.23;;;8.00;;
55423;SDS011;41294;42.666;23.350;2023-05-10T10:36:01;9.70;;;7.80;;
55423;SDS011;41294;42.666;23.350;2023-05-10T10:49:48;10.57;;;7.40;;
55423;SDS011;41294;42.666;23.350;2023-05-10T10:52:33;8.13;;;7.20;;
55423;SDS011;41294;42.666;23.350;2023-05-10T10:57:48;8.07;;;7.13;;
55423;SDS011;41294;42.666;23.350;2023-05-10T11:00:27;9.80;;;7.13;;
55423;SDS011;41294;42.666;23.350;2023-05-10T11:02:57;7.53;;;6.73;;
55423;SDS011;41294;42.666;23.350;2023-05-10T11:05:49;11.70;;;7.43;;
55423;SDS011;41294;42.666;23.350;2023-05-10T11:08:29;6.57;;;5.97;;
55423;SDS011;41294;42.666;23.350;2023-05-10T11:13:28;10.73;;;6.80;;
55423;SDS011;41294;42.666;23.350;2023-05-10T11:15:55;8.17;;;6.80;;
55423;SDS011;41294;42.666;23.350;2023-05-10T11:20:58;9.63;;;8.23;;
55423;SDS011;41294;42.666;23.350;2023-05-10T11:23:29;8.87;;;7.23;;
55423;SDS011;41294;42.666;23.350;2023-05-10T11:25:56;9.00;;;7.37;;
55423;SDS011;41294;42.666;23.350;2023-05-10T11:28:21;9.43;;;8.07;;
55423;SDS011;41294;42.666;23.350;2023-05-10T11:30:47;9.40;;;7.10;;
55423;SDS011;41294;42.666;23.350;2023-05-10T11:33:16;7.00;;;6.30;;
55423;SDS011;41294;42.666;23.350;2023-05-10T11:35:42;8.63;;;6.60;;
55423;SDS011;41294;42.666;23.350;2023-05-10T11:38:12;8.07;;;6.57;;
55423;SDS011;41294;42.666;23.350;2023-05-10T11:40:39;7.47;;;6.80;;
55423;SDS011;41294;42.666;23.350;2023-05-10T11:43:05;8.90;;;6.83;;
55423;SDS011;41294;42.666;23.350;2023-05-10T11:45:34;8.37;;;7.50;;
55423;SDS011;41294;42.666;23.350;2023-05-10T11:48:00;8.07;;;7.27;;
55423;SDS011;41294;42.666;23.350;2023-05-10T11:50:26;8.13;;;7.37;;
55423;SDS011;41294;42.666;23.350;2023-05-10T11:52:53;7.17;;;6.30;;
55423;SDS011;41294;42.666;23.350;2023-05-10T11:55:20;8.87;;;7.17;;
55423;SDS011;41294;42.666;23.350;2023-05-10T11:57:46;8.33;;;7.40;;
55423;SDS011;41294;42.666;23.350;2023-05-10T12:00:15;7.67;;;6.90;;
55423;SDS011;41294;42.666;23.350;2023-05-10T12:02:40;7.83;;;7.13;;
55423;SDS011;41294;42.666;23.350;2023-05-10T12:05:06;9.77;;;7.60;;
55423;SDS011;41294;42.666;23.350;2023-05-10T12:07:32;8.20;;;7.30;;
55423;SDS011;41294;42.666;23.350;2023-05-10T12:12:39;8.83;;;7.83;;
55423;SDS011;41294;42.666;23.350;2023-05-10T12:17:45;9.03;;;8.00;;
55423;SDS011;41294;42.666;23.350;2023-05-10T12:20:21;10.70;;;7.47;;
55423;SDS011;41294;42.666;23.350;2023-05-10T12:22:52;8.33;;;7.50;;
55423;SDS011;41294;42.666;23.350;2023-05-10T12:25:22;8.23;;;7.43;;
55423;SDS011;41294;42.666;23.350;2023-05-10T12:27:50;9.77;;;7.27;;
55423;SDS011;41294;42.666;23.350;2023-05-10T12:30:20;12.03;;;8.47;;
55423;SDS011;41294;42.666;23.350;2023-05-10T12:32:47;9.40;;;8.40;;
55423;SDS011;41294;42.666;23.350;2023-05-10T12:35:12;10.20;;;9.17;;
55423;SDS011;41294;42.666;23.350;2023-05-10T12:37:38;8.83;;;7.83;;
55423;SDS011;41294;42.666;23.350;2023-05-10T12:40:06;9.80;;;8.50;;
55423;SDS011;41294;42.666;23.350;2023-05-10T12:42:33;8.87;;;7.53;;
55423;SDS011;41294;42.666;23.350;2023-05-10T12:45:00;8.47;;;7.60;;
55423;SDS011;41294;42.666;23.350;2023-05-10T12:47:26;8.93;;;6.83;;
55423;SDS011;41294;42.666;23.350;2023-05-10T12:49:51;8.37;;;7.13;;
55423;SDS011;41294;42.666;23.350;2023-05-10T12:52:17;8.13;;;7.07;;
55423;SDS011;41294;42.666;23.350;2023-05-10T12:54:42;9.00;;;7.20;;
55423;SDS011;41294;42.666;23.350;2023-05-10T12:57:07;8.03;;;7.23;;
55423;SDS011;41294;42.666;23.350;2023-05-10T12:59:33;8.53;;;7.40;;
55423;SDS011;41294;42.666;23.350;2023-05-10T13:01:58;9.53;;;7.43;;
55423;SDS011;41294;42.666;23.350;2023-05-10T13:04:24;9.10;;;7.13;;
55423;SDS011;41294;42.666;23.350;2023-05-10T13:06:49;7.93;;;7.20;;
55423;SDS011;41294;42.666;23.350;2023-05-10T13:09:14;8.50;;;7.60;;
55423;SDS011;41294;42.666;23.350;2023-05-10T13:11:40;9.17;;;7.80;;
55423;SDS011;41294;42.666;23.350;2023-05-10T13:14:06;9.90;;;7.37;;
55423;SDS011;41294;42.666;23.350;2023-05-10T13:16:32;8.70;;;7.03;;
55423;SDS011;41294;42.666;23.350;2023-05-10T13:18:57;8.13;;;7.27;;
55423;SDS011;41294;42.666;23.350;2023-05-10T13:21:23;10.90;;;6.80;;
55423;SDS011;41294;42.666;23.350;2023-05-10T13:23:50;11.00;;;7.30;;
55423;SDS011;41294;42.666;23.350;2023-05-10T13:26:15;7.90;;;7.10;;
55423;SDS011;41294;42.666;23.350;2023-05-10T13:28:41;7.93;;;7.00;;
55423;SDS011;41294;42.666;23.350;2023-05-10T13:31:06;9.60;;;6.57;;
55423;SDS011;41294;42.666;23.350;2023-05-10T13:33:32;9.80;;;7.90;;
55423;SDS011;41294;42.666;23.350;2023-05-10T13:35:57;9.80;;;7.40;;
55423;SDS011;41294;42.666;23.350;2023-05-10T13:38:23;9.03;;;7.07;;
55423;SDS011;41294;42.666;23.350;2023-05-10T13:40:48;10.00;;;6.67;;
55423;SDS011;41294;42.666;23.350;2023-05-10T13:43:17;7.20;;;6.47;;
55423;SDS011;41294;42.666;23.350;2023-05-10T13:45:43;6.93;;;6.33;;
55423;SDS011;41294;42.666;23.350;2023-05-10T13:48:08;7.57;;;6.50;;
55423;SDS011;41294;42.666;23.350;2023-05-10T13:50:33;6.43;;;5.83;;
55423;SDS011;41294;42.666;23.350;2023-05-10T13:52:59;7.33;;;6.50;;
55423;SDS011;41294;42.666;23.350;2023-05-10T13:58:47;7.97;;;6.80;;
55423;SDS011;41294;42.666;23.350;2023-05-10T14:01:12;8.90;;;7.17;;
55423;SDS011;41294;42.666;23.350;2023-05-10T14:03:38;7.93;;;7.00;;
55423;SDS011;41294;42.666;23.350;2023-05-10T14:06:03;8.20;;;7.47;;
55423;SDS011;41294;42.666;23.350;2023-05-10T14:08:29;8.30;;;7.33;;
55423;SDS011;41294;42.666;23.350;2023-05-10T14:10:54;7.70;;;7.00;;
55423;SDS011;41294;42.666;23.350;2023-05-10T14:13:21;8.80;;;6.80;;
55423;SDS011;41294;42.666;23.350;2023-05-10T14:15:46;8.00;;;7.17;;
55423;SDS011;41294;42.666;23.350;2023-05-10T14:18:12;7.63;;;6.83;;
55423;SDS011;41294;42.666;23.350;2023-05-10T14:20:39;7.83;;;7.13;;
55423;SDS011;41294;42.666;23.350;2023-05-10T14:23:04;9.90;;;6.97;;
55423;SDS011;41294;42.666;23.350;2023-05-10T14:25:30;7.47;;;6.63;;
55423;SDS011;41294;42.666;23.350;2023-05-10T14:27:55;11.67;;;7.67;;
55423;SDS011;41294;42.666;23.350;2023-05-10T14:30:21;8.07;;;7.27;;
55423;SDS011;41294;42.666;23.350;2023-05-10T14:32:47;9.43;;;7.43;;
55423;SDS011;41294;42.666;23.350;2023-05-10T14:35:13;7.80;;;7.00;;
55423;SDS011;41294;42.666;23.350;2023-05-10T14:37:38;8.03;;;7.10;;
55423;SDS011;41294;42.666;23.350;2023-05-10T14:40:04;8.73;;;7.83;;
55423;SDS011;41294;42.666;23.350;2023-05-10T14:42:31;9.50;;;7.50;;
55423;SDS011;41294;42.666;23.350;2023-05-10T14:44:57;8.73;;;7.93;;
55423;SDS011;41294;42.666;23.350;2023-05-10T14:47:22;10.50;;;7.00;;
55423;SDS011;41294;42.666;23.350;2023-05-10T14:49:47;8.90;;;7.87;;
55423;SDS011;41294;42.666;23.350;2023-05-10T14:55:35;8.30;;;7.47;;
55423;SDS011;41294;42.666;23.350;2023-05-10T14:58:01;9.37;;;7.73;;
55423;SDS011;41294;42.666;23.350;2023-05-10T15:00:28;9.30;;;8.33;;
55423;SDS011;41294;42.666;23.350;2023-05-10T15:02:54;9.47;;;7.47;;
55423;SDS011;41294;42.666;23.350;2023-05-10T15:05:19;9.77;;;7.07;;
55423;SDS011;41294;42.666;23.350;2023-05-10T15:07:45;8.33;;;7.13;;
55423;SDS011;41294;42.666;23.350;2023-05-10T15:10:10;8.20;;;7.37;;
55423;SDS011;41294;42.666;23.350;2023-05-10T15:12:36;11.07;;;7.13;;
55423;SDS011;41294;42.666;23.350;2023-05-10T15:15:02;9.63;;;7.10;;
55423;SDS011;41294;42.666;23.350;2023-05-10T15:17:27;7.57;;;6.67;;
55423;SDS011;41294;42.666;23.350;2023-05-10T15:19:53;8.40;;;7.50;;
55423;SDS011;41294;42.666;23.350;2023-05-10T15:22:18;7.73;;;7.00;;
55423;SDS011;41294;42.666;23.350;2023-05-10T15:24:44;9.57;;;7.30;;
55423;SDS011;41294;42.666;23.350;2023-05-10T15:27:09;8.20;;;7.23;;
55423;SDS011;41294;42.666;23.350;2023-05-10T15:29:34;8.87;;;6.83;;
55423;SDS011;41294;42.666;23.350;2023-05-10T15:32:00;10.23;;;7.57;;